createdAt,value
2017-09-10T00:01:44.217Z,99.90
2017-09-10T00:04:11.812Z,99.90
2017-09-10T00:06:39.393Z,99.90
2017-09-10T00:09:07.024Z,99.90
2017-09-10T00:11:34.928Z,99.90
2017-09-10T00:14:02.530Z,99.90
2017-09-10T00:16:30.120Z,99.90
2017-09-10T00:18:57.878Z,99.90
2017-09-10T00:21:25.546Z,99.90
2017-09-10T00:23:53.146Z,99.90
2017-09-10T00:26:21.488Z,99.90
2017-09-10T00:28:49.061Z,99.90
2017-09-10T00:31:16.676Z,99.90
2017-09-10T00:33:44.279Z,99.90
2017-09-10T00:36:11.852Z,99.90
2017-09-10T00:38:39.473Z,99.90
2017-09-10T00:41:07.102Z,99.90
2017-09-10T00:43:35.480Z,99.90
2017-09-10T00:46:03.822Z,99.90
2017-09-10T00:48:31.417Z,99.90
2017-09-10T00:50:59.036Z,99.90
2017-09-10T00:53:26.603Z,99.90
2017-09-10T00:55:54.230Z,99.90
2017-09-10T00:58:21.808Z,99.90
2017-09-10T01:00:49.419Z,99.90
2017-09-10T01:03:17.860Z,99.90
2017-09-10T01:05:45.474Z,99.90
2017-09-10T01:08:13.079Z,99.90
2017-09-10T01:10:40.675Z,99.90
2017-09-10T01:13:08.246Z,99.90
2017-09-10T01:15:35.852Z,99.90
2017-09-10T01:18:03.440Z,99.90
2017-09-10T01:20:31.181Z,99.90
2017-09-10T01:22:58.778Z,99.90
2017-09-10T01:25:26.461Z,99.90
2017-09-10T01:27:54.898Z,99.90
2017-09-10T01:30:22.491Z,99.90
2017-09-10T01:32:50.072Z,99.90
2017-09-10T01:35:18.439Z,99.90
2017-09-10T01:37:46.791Z,99.90
2017-09-10T01:40:14.361Z,99.90
2017-09-10T01:42:42.825Z,99.90
2017-09-10T01:45:10.685Z,99.90
2017-09-10T01:47:38.290Z,99.90
2017-09-10T01:50:06.674Z,99.90
2017-09-10T01:52:35.024Z,99.90
2017-09-10T01:55:02.603Z,99.90
2017-09-10T01:57:30.192Z,99.90
2017-09-10T01:59:57.764Z,99.90
2017-09-10T02:02:25.349Z,99.90
2017-09-10T02:04:52.921Z,99.90
2017-09-10T02:07:20.509Z,99.90
2017-09-10T02:09:48.950Z,99.90
2017-09-10T02:12:16.534Z,99.90
2017-09-10T02:14:44.134Z,99.90
2017-09-10T02:17:12.524Z,99.90
2017-09-10T02:19:40.103Z,99.90
2017-09-10T02:22:08.132Z,99.90
2017-09-10T02:24:36.530Z,99.90
2017-09-10T02:27:04.870Z,99.90
2017-09-10T02:29:32.478Z,99.90
2017-09-10T02:32:00.125Z,99.90
2017-09-10T02:34:27.679Z,99.90
2017-09-10T02:36:55.338Z,99.90
2017-09-10T02:39:22.926Z,99.90
2017-09-10T02:41:50.539Z,99.90
2017-09-10T02:44:18.119Z,99.90
2017-09-10T02:46:45.713Z,99.90
2017-09-10T02:49:13.279Z,99.90
2017-09-10T02:51:40.898Z,99.90
2017-09-10T02:54:08.465Z,99.90
2017-09-10T02:56:36.076Z,99.90
2017-09-10T02:59:04.418Z,99.90
2017-09-10T03:01:31.993Z,99.90
2017-09-10T03:03:59.600Z,99.90
2017-09-10T03:06:27.154Z,99.90
2017-09-10T03:08:55.534Z,99.90
2017-09-10T03:11:23.903Z,99.90
2017-09-10T03:13:52.225Z,99.90
2017-09-10T03:16:19.925Z,99.90
2017-09-10T03:18:47.627Z,99.90
2017-09-10T03:21:15.971Z,99.90
2017-09-10T03:23:43.572Z,99.90
2017-09-10T03:26:11.154Z,99.90
2017-09-10T03:28:38.769Z,99.90
2017-09-10T03:31:07.216Z,99.90
2017-09-10T03:33:34.841Z,99.90
2017-09-10T03:36:02.381Z,99.90
2017-09-10T03:38:30.733Z,99.90
2017-09-10T03:40:58.314Z,99.90
2017-09-10T03:43:26.664Z,99.90
2017-09-10T03:45:54.254Z,99.90
2017-09-10T03:48:22.611Z,99.90
2017-09-10T03:50:50.286Z,99.90
2017-09-10T03:53:17.892Z,99.90
2017-09-10T03:55:46.383Z,99.90
2017-09-10T03:58:14.013Z,99.90
2017-09-10T04:00:42.336Z,99.90
2017-09-10T04:03:09.948Z,99.90
2017-09-10T04:05:38.309Z,99.90
2017-09-10T04:08:05.919Z,99.90
2017-09-10T04:10:33.514Z,99.90
2017-09-10T04:13:01.122Z,99.90
2017-09-10T04:15:29.466Z,99.90
2017-09-10T04:17:57.123Z,99.90
2017-09-10T04:20:24.682Z,99.90
2017-09-10T04:22:52.247Z,99.90
2017-09-10T04:25:19.807Z,99.90
2017-09-10T04:27:47.404Z,99.90
2017-09-10T04:30:15.811Z,99.90
2017-09-10T04:32:43.410Z,99.90
2017-09-10T04:35:11.010Z,99.90
2017-09-10T04:37:39.376Z,99.90
2017-09-10T04:40:07.764Z,99.90
2017-09-10T04:42:36.084Z,99.90
2017-09-10T04:45:03.664Z,99.90
2017-09-10T04:47:31.253Z,99.90
2017-09-10T04:49:58.821Z,99.90
2017-09-10T04:52:27.202Z,99.90
2017-09-10T04:55:04.706Z,99.90
2017-09-10T04:57:33.069Z,99.90
2017-09-10T05:00:00.626Z,99.90
2017-09-10T05:02:28.218Z,99.90
2017-09-10T05:04:55.814Z,99.90
2017-09-10T05:07:23.383Z,99.90
2017-09-10T05:09:51.103Z,99.90
2017-09-10T05:12:18.737Z,99.90
2017-09-10T05:14:46.351Z,99.90
2017-09-10T05:17:13.898Z,99.90
2017-09-10T05:19:41.483Z,99.90
2017-09-10T05:22:09.043Z,99.90
2017-09-10T05:24:36.618Z,99.90
2017-09-10T05:27:04.208Z,99.90
2017-09-10T05:29:31.851Z,99.90
2017-09-10T05:31:59.421Z,99.90
2017-09-10T05:34:27.054Z,99.90
2017-09-10T05:36:54.648Z,99.90
2017-09-10T05:39:22.311Z,99.90
2017-09-10T05:41:49.888Z,99.90
2017-09-10T05:44:18.279Z,99.90
2017-09-10T05:46:46.646Z,99.90
2017-09-10T05:49:15.103Z,99.90
2017-09-10T05:51:42.707Z,99.90
2017-09-10T05:54:11.075Z,99.90
2017-09-10T05:56:39.539Z,99.90
2017-09-10T05:59:07.109Z,99.90
2017-09-10T06:01:34.704Z,99.90
2017-09-10T06:04:02.415Z,99.90
2017-09-10T06:06:30.004Z,99.90
2017-09-10T06:08:58.320Z,99.90
2017-09-10T06:11:25.911Z,99.90
2017-09-10T06:13:54.418Z,99.90
2017-09-10T06:16:22.010Z,99.90
2017-09-10T06:18:49.642Z,99.90
2017-09-10T06:21:17.239Z,99.90
2017-09-10T06:23:44.858Z,99.90
2017-09-10T06:26:12.726Z,99.90
2017-09-10T06:28:40.335Z,99.90
2017-09-10T06:31:07.902Z,99.90
2017-09-10T06:33:35.547Z,99.90
2017-09-10T06:36:03.877Z,99.90
2017-09-10T06:38:31.477Z,99.90
2017-09-10T06:40:59.804Z,99.90
2017-09-10T06:43:27.512Z,99.90
2017-09-10T06:45:55.091Z,99.90
2017-09-10T06:48:23.424Z,99.90
2017-09-10T06:50:51.019Z,99.90
2017-09-10T06:53:19.350Z,99.90
2017-09-10T06:55:46.923Z,99.90
2017-09-10T06:58:14.502Z,99.90
2017-09-10T07:00:42.165Z,99.90
2017-09-10T07:03:09.804Z,99.90
2017-09-10T07:05:37.437Z,99.90
2017-09-10T07:08:05.836Z,99.90
2017-09-10T07:10:33.433Z,99.90
2017-09-10T07:13:01.054Z,99.90
2017-09-10T07:15:28.731Z,99.90
2017-09-10T07:17:56.370Z,99.90
2017-09-10T07:20:23.971Z,99.90
2017-09-10T07:22:51.567Z,99.90
2017-09-10T07:25:19.950Z,99.90
2017-09-10T07:27:48.274Z,99.90
2017-09-10T07:30:15.886Z,99.90
2017-09-10T07:32:43.587Z,99.90
2017-09-10T07:35:11.160Z,99.90
2017-09-10T07:37:38.729Z,99.90
2017-09-10T07:40:06.317Z,99.90
2017-09-10T07:42:33.903Z,99.90
2017-09-10T07:45:02.410Z,99.90
2017-09-10T07:47:30.014Z,99.90
2017-09-10T07:49:57.607Z,99.90
2017-09-10T07:52:25.210Z,99.90
2017-09-10T07:54:52.767Z,99.90
2017-09-10T07:57:20.372Z,99.90
2017-09-10T07:59:47.946Z,99.90
2017-09-10T08:02:15.542Z,99.90
2017-09-10T08:04:43.218Z,99.90
2017-09-10T08:07:10.793Z,99.90
2017-09-10T08:09:38.365Z,99.90
2017-09-10T08:12:05.926Z,99.90
2017-09-10T08:14:33.534Z,99.90
2017-09-10T08:17:01.982Z,99.90
2017-09-10T08:19:29.609Z,99.90
2017-09-10T08:21:57.182Z,99.90
2017-09-10T08:24:24.941Z,99.90
2017-09-10T08:26:52.501Z,99.90
2017-09-10T08:29:20.127Z,99.90
2017-09-10T08:31:48.507Z,99.90
2017-09-10T08:34:16.840Z,99.90
2017-09-10T08:36:44.404Z,99.90
2017-09-10T08:39:11.996Z,99.90
2017-09-10T08:41:39.565Z,99.90
2017-09-10T08:44:07.134Z,99.90
2017-09-10T08:46:34.707Z,99.90
2017-09-10T08:49:03.038Z,99.90
2017-09-10T08:51:30.607Z,99.90
2017-09-10T08:53:58.200Z,99.90
2017-09-10T08:56:25.779Z,99.90
2017-09-10T08:58:54.120Z,99.90
2017-09-10T09:01:21.704Z,99.90
2017-09-10T09:03:49.295Z,99.90
2017-09-10T09:06:16.855Z,99.90
2017-09-10T09:08:44.630Z,99.90
2017-09-10T09:11:12.197Z,99.90
2017-09-10T09:13:40.435Z,99.90
2017-09-10T09:16:07.979Z,99.90
2017-09-10T09:18:35.723Z,99.90
2017-09-10T09:21:03.321Z,99.90
2017-09-10T09:23:30.953Z,99.90
2017-09-10T09:25:58.533Z,99.90
2017-09-10T09:28:26.095Z,99.90
2017-09-10T09:30:53.696Z,99.90
2017-09-10T09:33:22.413Z,99.90
2017-09-10T09:35:50.011Z,99.90
2017-09-10T09:38:17.586Z,99.90
2017-09-10T09:40:45.149Z,99.90
2017-09-10T09:43:12.735Z,99.90
2017-09-10T09:45:41.103Z,99.90
2017-09-10T09:48:08.711Z,99.90
2017-09-10T09:50:36.310Z,99.90
2017-09-10T09:53:04.655Z,99.90
2017-09-10T09:55:32.304Z,99.90
2017-09-10T09:57:59.882Z,99.90
2017-09-10T10:00:27.487Z,99.90
2017-09-10T10:02:55.074Z,99.90
2017-09-10T10:05:23.986Z,98.80
2017-09-10T10:07:51.559Z,99.10
2017-09-10T10:10:20.005Z,99.90
2017-09-10T10:12:48.554Z,99.90
2017-09-10T10:15:16.868Z,99.90
2017-09-10T10:17:45.215Z,95.90
2017-09-10T10:20:13.554Z,95.80
2017-09-10T10:22:41.157Z,93.30
2017-09-10T10:25:08.718Z,94.50
2017-09-10T10:27:37.364Z,93.20
2017-09-10T10:30:04.959Z,96.70
2017-09-10T10:32:32.606Z,92.90
2017-09-10T10:35:00.191Z,93.50
2017-09-10T10:37:27.798Z,94.50
2017-09-10T10:39:55.375Z,94.80
2017-09-10T10:42:22.959Z,95.40
2017-09-10T10:44:50.548Z,92.30
2017-09-10T10:47:18.099Z,98.30
2017-09-10T10:49:45.696Z,98.10
2017-09-10T10:52:14.179Z,96.90
2017-09-10T10:54:41.840Z,96.70
2017-09-10T10:57:10.150Z,79.50
2017-09-10T10:59:37.702Z,80.80
2017-09-10T11:02:05.281Z,81.50
2017-09-10T11:04:33.883Z,85.40
2017-09-10T11:07:01.438Z,75.70
2017-09-10T11:09:29.103Z,77.70
2017-09-10T11:11:56.790Z,85.90
2017-09-10T11:14:24.405Z,90.30
2017-09-10T11:16:52.819Z,88.80
2017-09-10T11:19:20.397Z,86.90
2017-09-10T11:21:48.005Z,85.60
2017-09-10T11:24:16.342Z,92.10
2017-09-10T11:26:43.951Z,92.10
2017-09-10T11:29:12.505Z,77.00
2017-09-10T11:31:40.088Z,77.30
2017-09-10T11:34:08.429Z,76.50
2017-09-10T11:36:36.177Z,76.70
2017-09-10T11:39:03.895Z,79.30
2017-09-10T11:41:32.375Z,91.80
2017-09-10T11:43:59.946Z,91.50
2017-09-10T11:46:28.281Z,94.40
2017-09-10T11:48:55.902Z,94.20
2017-09-10T11:51:24.109Z,92.60
2017-09-10T11:53:51.723Z,91.30
2017-09-10T11:56:19.282Z,86.10
2017-09-10T11:58:46.917Z,90.80
2017-09-10T12:01:14.478Z,89.70
2017-09-10T12:03:42.083Z,91.50
2017-09-10T12:06:10.449Z,91.90
2017-09-10T12:08:38.008Z,91.70
2017-09-10T12:11:05.575Z,93.30
2017-09-10T12:13:33.200Z,91.90
2017-09-10T12:16:00.818Z,90.70
2017-09-10T12:18:29.182Z,90.90
2017-09-10T12:20:56.742Z,91.60
2017-09-10T12:23:24.431Z,86.10
2017-09-10T12:25:52.790Z,87.70
2017-09-10T12:28:20.455Z,88.50
2017-09-10T12:30:48.055Z,89.30
2017-09-10T12:33:15.647Z,91.40
2017-09-10T12:35:43.222Z,88.50
2017-09-10T12:38:11.505Z,94.10
2017-09-10T12:40:39.128Z,98.10
2017-09-10T12:43:06.839Z,97.40
2017-09-10T12:45:34.428Z,97.80
2017-09-10T12:48:02.002Z,95.80
2017-09-10T12:50:29.602Z,96.80
2017-09-10T12:52:57.162Z,96.20
2017-09-10T12:55:24.727Z,93.90
2017-09-10T12:57:52.368Z,90.70
2017-09-10T13:00:19.942Z,91.70
2017-09-10T13:02:47.583Z,96.00
2017-09-10T13:05:15.934Z,94.70
2017-09-10T13:07:43.481Z,94.40
2017-09-10T13:10:11.091Z,93.00
2017-09-10T13:12:39.493Z,91.30
2017-09-10T13:15:07.100Z,91.50
2017-09-10T13:17:34.662Z,94.30
2017-09-10T13:20:02.242Z,96.30
2017-09-10T13:22:30.589Z,96.90
2017-09-10T13:24:58.151Z,96.80
2017-09-10T13:27:25.738Z,95.00
2017-09-10T13:29:53.383Z,93.90
2017-09-10T13:32:20.974Z,93.50
2017-09-10T13:34:49.316Z,90.40
2017-09-10T13:37:16.917Z,90.40
2017-09-10T13:39:45.255Z,91.40
2017-09-10T13:42:12.844Z,91.30
2017-09-10T13:44:40.414Z,94.90
2017-09-10T13:47:08.850Z,97.60
2017-09-10T13:49:36.556Z,97.50
2017-09-10T13:52:04.151Z,99.20
2017-09-10T13:54:31.742Z,99.90
2017-09-10T13:56:59.415Z,99.90
2017-09-10T13:59:27.046Z,99.90
2017-09-10T14:01:54.628Z,99.90
2017-09-10T14:04:22.210Z,99.90
2017-09-10T14:06:49.834Z,99.90
2017-09-10T14:09:17.427Z,99.80
2017-09-10T14:11:45.006Z,98.50
2017-09-10T14:14:12.606Z,98.30
2017-09-10T14:16:40.984Z,98.10
2017-09-10T14:19:09.301Z,98.30
2017-09-10T14:21:36.918Z,98.30
2017-09-10T14:24:04.490Z,93.90
2017-09-10T14:26:32.860Z,93.40
2017-09-10T14:29:02.022Z,93.50
2017-09-10T14:31:29.830Z,93.40
2017-09-10T14:33:57.418Z,92.40
2017-09-10T14:36:24.996Z,92.20
2017-09-10T14:38:52.574Z,93.90
2017-09-10T14:41:20.324Z,95.90
2017-09-10T14:43:47.927Z,96.40
2017-09-10T14:46:15.498Z,98.10
2017-09-10T14:48:43.062Z,98.10
2017-09-10T14:51:10.637Z,97.90
2017-09-10T14:53:39.001Z,99.80
2017-09-10T14:56:06.557Z,99.70
2017-09-10T14:58:34.146Z,99.90
2017-09-10T15:01:02.512Z,99.90
2017-09-10T15:03:30.094Z,99.90
2017-09-10T15:05:58.405Z,98.10
2017-09-10T15:08:25.993Z,98.10
2017-09-10T15:10:53.591Z,96.90
2017-09-10T15:13:21.195Z,99.50
2017-09-10T15:15:48.952Z,99.90
2017-09-10T15:18:16.498Z,99.90
2017-09-10T15:20:44.106Z,99.00
2017-09-10T15:23:11.665Z,99.50
2017-09-10T15:25:39.257Z,97.40
2017-09-10T15:28:06.957Z,98.00
2017-09-10T15:30:34.670Z,96.70
2017-09-10T15:33:02.230Z,97.40
2017-09-10T15:35:29.842Z,98.40
2017-09-10T15:37:57.398Z,97.40
2017-09-10T15:40:24.982Z,98.70
2017-09-10T15:42:52.550Z,98.40
2017-09-10T15:45:20.115Z,99.20
2017-09-10T15:47:47.976Z,99.90
2017-09-10T15:50:15.551Z,98.90
2017-09-10T15:52:43.131Z,99.80
2017-09-10T15:55:10.730Z,99.90
2017-09-10T15:57:39.074Z,99.90
2017-09-10T16:00:06.740Z,99.90
2017-09-10T16:02:34.343Z,99.90
2017-09-10T16:05:02.705Z,99.90
2017-09-10T16:07:31.070Z,99.90
2017-09-10T16:09:58.699Z,99.90
2017-09-10T16:12:26.289Z,99.90
2017-09-10T16:14:53.906Z,99.90
2017-09-10T16:17:21.491Z,99.90
2017-09-10T16:19:49.129Z,99.90
2017-09-10T16:22:16.851Z,99.90
2017-09-10T16:24:44.429Z,99.90
2017-09-10T16:27:12.779Z,99.90
2017-09-10T16:29:40.378Z,99.90
2017-09-10T16:32:08.920Z,99.90
2017-09-10T16:34:36.515Z,99.90
2017-09-10T16:37:04.051Z,99.90
2017-09-10T16:39:31.691Z,99.90
2017-09-10T16:41:59.293Z,99.90
2017-09-10T16:44:27.674Z,99.90
2017-09-10T16:46:55.549Z,99.90
2017-09-10T16:49:23.213Z,99.90
2017-09-10T16:51:51.658Z,99.90
2017-09-10T16:54:19.273Z,99.90
2017-09-10T16:56:49.995Z,99.90
2017-09-10T16:59:17.851Z,99.90
2017-09-10T17:01:45.623Z,99.90
2017-09-10T17:04:13.399Z,99.90
2017-09-10T17:06:41.079Z,99.90
2017-09-10T17:09:08.810Z,99.90
2017-09-10T17:11:37.353Z,99.90
2017-09-10T17:14:05.135Z,99.90
2017-09-10T17:16:33.609Z,99.90
2017-09-10T17:19:02.820Z,99.90
2017-09-10T17:21:31.223Z,99.90
2017-09-10T17:23:58.891Z,99.90
2017-09-10T17:26:26.518Z,99.90
2017-09-10T17:28:54.888Z,99.90
2017-09-10T17:31:22.520Z,99.90
2017-09-10T17:33:50.428Z,99.90
2017-09-10T17:36:18.133Z,99.90
2017-09-10T17:38:46.562Z,99.90
2017-09-10T17:41:14.191Z,99.90
2017-09-10T17:43:41.828Z,99.90
2017-09-10T17:46:09.456Z,99.90
2017-09-10T17:48:37.158Z,99.90
2017-09-10T17:51:05.515Z,99.90
2017-09-10T17:53:33.101Z,99.90
2017-09-10T17:56:00.690Z,99.90
2017-09-10T17:58:28.291Z,99.90
2017-09-10T18:00:56.623Z,99.90
2017-09-10T18:03:24.238Z,99.90
2017-09-10T18:05:52.590Z,99.90
2017-09-10T18:08:20.163Z,99.90
2017-09-10T18:10:47.727Z,99.90
2017-09-10T18:13:15.299Z,99.90
2017-09-10T18:15:43.771Z,99.90
2017-09-10T18:18:11.326Z,99.90
2017-09-10T18:20:39.006Z,99.90
2017-09-10T18:23:06.607Z,99.90
2017-09-10T18:25:34.226Z,99.90
2017-09-10T18:28:02.656Z,99.90
2017-09-10T18:30:30.846Z,99.90
2017-09-10T18:32:58.612Z,99.90
2017-09-10T18:35:26.180Z,99.90
2017-09-10T18:37:53.784Z,99.90
2017-09-10T18:40:21.490Z,99.90
2017-09-10T18:42:49.191Z,99.90
2017-09-10T18:45:16.899Z,99.90
2017-09-10T18:47:44.473Z,99.90
2017-09-10T18:50:12.042Z,99.90
2017-09-10T18:52:39.688Z,99.90
2017-09-10T18:55:07.291Z,99.90
2017-09-10T18:57:34.930Z,99.90
2017-09-10T19:00:02.561Z,99.90
2017-09-10T19:02:30.924Z,99.90
2017-09-10T19:04:58.530Z,99.90
2017-09-10T19:07:26.099Z,99.90
2017-09-10T19:09:54.660Z,99.90
2017-09-10T19:12:22.394Z,99.90
2017-09-10T19:14:50.052Z,99.90
2017-09-10T19:17:17.776Z,99.90
2017-09-10T19:19:45.355Z,99.90
2017-09-10T19:22:13.020Z,99.90
2017-09-10T19:24:40.631Z,99.90
2017-09-10T19:27:09.267Z,99.90
2017-09-10T19:29:37.139Z,99.90
2017-09-10T19:32:04.880Z,99.90
2017-09-10T19:34:32.512Z,99.90
2017-09-10T19:37:01.109Z,99.90
2017-09-10T19:39:28.672Z,99.90
2017-09-10T19:41:56.514Z,99.90
2017-09-10T19:44:25.001Z,99.90
2017-09-10T19:46:53.445Z,99.90
2017-09-10T19:49:21.023Z,99.90
2017-09-10T19:51:48.615Z,99.90
2017-09-10T19:54:17.617Z,99.90
2017-09-10T19:56:46.009Z,99.90
2017-09-10T19:59:13.750Z,99.90
2017-09-10T20:01:41.362Z,99.90
2017-09-10T20:04:09.727Z,99.90
2017-09-10T20:06:37.315Z,99.90
2017-09-10T20:09:05.136Z,99.90
2017-09-10T20:11:32.698Z,99.90
2017-09-10T20:14:00.387Z,99.90
2017-09-10T20:16:27.987Z,99.90
2017-09-10T20:18:55.605Z,99.90
2017-09-10T20:21:23.223Z,99.90
2017-09-10T20:23:50.819Z,99.90
2017-09-10T20:26:18.372Z,99.90
2017-09-10T20:28:45.965Z,99.90
2017-09-10T20:31:13.694Z,99.90
2017-09-10T20:33:41.329Z,99.90
2017-09-10T20:36:09.694Z,99.90
2017-09-10T20:38:38.049Z,99.90
2017-09-10T20:41:05.683Z,99.90
2017-09-10T20:43:33.262Z,99.90
2017-09-10T20:46:00.860Z,99.90
2017-09-10T20:48:29.259Z,99.90
2017-09-10T20:50:57.620Z,99.90
2017-09-10T20:53:26.022Z,99.90
2017-09-10T20:55:53.591Z,99.90
2017-09-10T20:58:21.336Z,99.90
2017-09-10T21:00:49.688Z,99.90
2017-09-10T21:03:17.290Z,99.90
2017-09-10T21:05:45.645Z,99.90
2017-09-10T21:08:13.246Z,99.90
2017-09-10T21:10:40.859Z,99.90
2017-09-10T21:13:08.503Z,99.90
2017-09-10T21:15:36.088Z,99.90
2017-09-10T21:18:03.805Z,99.90
2017-09-10T21:20:31.381Z,99.90
2017-09-10T21:22:59.019Z,99.90
2017-09-10T21:25:26.574Z,99.90
2017-09-10T21:27:54.165Z,99.90
2017-09-10T21:30:21.726Z,99.90
2017-09-10T21:32:49.298Z,99.90
2017-09-10T21:35:16.902Z,99.90
2017-09-10T21:37:45.233Z,99.90
2017-09-10T21:40:12.829Z,99.90
2017-09-10T21:42:41.276Z,99.90
2017-09-10T21:45:09.723Z,99.90
2017-09-10T21:47:37.325Z,99.90
2017-09-10T21:50:05.078Z,99.90
2017-09-10T21:52:32.698Z,99.90
2017-09-10T21:55:01.047Z,99.90
2017-09-10T21:57:28.796Z,99.90
2017-09-10T21:59:56.385Z,99.90
2017-09-10T22:02:23.951Z,99.90
2017-09-10T22:04:51.554Z,99.90
2017-09-10T22:07:19.143Z,99.90
2017-09-10T22:09:46.711Z,99.90
2017-09-10T22:12:14.286Z,99.90
2017-09-10T22:14:42.584Z,99.90
2017-09-10T22:17:10.331Z,99.90
2017-09-10T22:19:37.903Z,99.90
2017-09-10T22:22:05.459Z,99.90
2017-09-10T22:24:33.577Z,99.90
2017-09-10T22:27:01.162Z,99.90
2017-09-10T22:29:28.770Z,99.90
2017-09-10T22:31:57.114Z,99.90
2017-09-10T22:34:24.690Z,99.90
2017-09-10T22:36:52.283Z,99.90
2017-09-10T22:39:20.612Z,99.90
2017-09-10T22:41:48.203Z,99.90
2017-09-10T22:44:15.879Z,99.90
2017-09-10T22:46:44.234Z,99.90
2017-09-10T22:49:11.811Z,99.90
2017-09-10T22:51:40.155Z,99.90
2017-09-10T22:54:07.716Z,99.90
2017-09-10T22:56:35.303Z,99.90
2017-09-10T22:59:02.928Z,99.90
2017-09-10T23:01:30.494Z,99.90
2017-09-10T23:03:58.086Z,99.90
2017-09-10T23:06:25.659Z,99.90
2017-09-10T23:08:53.233Z,99.90
2017-09-10T23:11:21.586Z,99.90
2017-09-10T23:13:49.174Z,99.90
2017-09-10T23:16:17.499Z,99.90
2017-09-10T23:18:45.094Z,99.90
2017-09-10T23:21:12.678Z,99.90
2017-09-10T23:23:40.233Z,99.90
2017-09-10T23:26:08.592Z,99.90
2017-09-10T23:28:36.189Z,99.90
2017-09-10T23:31:03.762Z,99.90
2017-09-10T23:33:32.094Z,99.90
2017-09-10T23:35:59.651Z,99.90
2017-09-10T23:38:27.999Z,99.90
2017-09-10T23:40:55.581Z,99.90
2017-09-10T23:43:23.178Z,99.90
2017-09-10T23:45:50.787Z,99.90
2017-09-10T23:48:18.329Z,99.90
2017-09-10T23:50:45.910Z,99.90
2017-09-10T23:53:13.470Z,99.90
2017-09-10T23:55:41.132Z,99.90
2017-09-10T23:58:08.707Z,99.90
